Navigation: Drive List Submit Your Drive Statistics Feedback Help Privacy About
 
This list is created by those who submitted their information to this page. You cannot expect 100% accuracy, but if there's many entries of the same drive chances are the majority is correct. If the drive you want to submit is already in the list, don't hasitate to submit since you are only confirming that the particular drive work/doesn't work. Recommended screen resolution: 1024x768 or higher.

In the beginning I only included the entries from the xbox-scene forum thread that had a valid model number, or where the model number could be guessed. I have skipped a lot of WD 120GB and Maxtor drives because they didn't provide the model number.

2005-11-18: If you accidentally locked a drive with a wrong password or lost the matching Xbox eeprom to unlock the drive, there's now a new service online that will allow you (for a small fee) to force unlock the hard drive and return it back to normal state. Most of the hard drives from Maxtor, Western Digital, Seagate and Samsung is supported. If you you're serious about getting your data back or the drive working again, you should take a look AFF Repair Station.

2006-05-28: It's been a while since the last news update. Whenever I see a bug or error I update the codebase, and in the last month I've fixed some submission errors, edit auth faults and recently made the sorting and filtering system the way it should be. There is still a problem with invalid submissions in the database and I encourage you to report them so I can remove the entries. Thanks to those who've submitted to the database.

-

Total entries: 3382 Locking: 2632 (77%)
Not locking: 750 (22%)
Most lockable brand: Western Digital
Most lockable drive serie: Baracuda
Most lockable drive: Seagate ST3200822A
Most popular lockable drive size: 120 GB
Most popular lockable drive speed: 7200 RPM
Most popular locking program: ConfigMagic
Search bar Show all
Added Brand Model no. Size RPM Buffer Locking Program XBOX Posted by Comment #
201. 2005-04-18 Seagate ST330630A 30.61 GB 7200 N/A No 1.0A Unk. inx None 0
202. 2005-04-21 Seagate ST3200822A 200 GB 7200 8 MB Yes Auto Sl... v1.4 Hairybelly... Works Fi... 0
203. 2005-04-26 Seagate ST3160023A 160 GB 7200 8 MB Yes Xenium/... v1.6 poepzooi max 40 d... 0
204. 2005-04-26 Seagate ST3160023A 160 GB 7200 8 MB Yes EVOX v1.0 ikdedinges... silent, ... 0
205. 2005-04-26 Seagate ST3250823A 250 GB 7200 8 MB Yes XBOXHDM... v1.5 reishasser... None 0
206. 2005-04-27 Seagate ST3160021A 160 GB 7200 2 MB Yes X3 BIOS... v1.6 n3dst3r Stuck it... 0
207. 2005-04-29 Seagate ST320414A 20 GB N/A N/A Yes Evox v1.6 Tip None 0
208. 2005-04-30 Seagate ST330620A 30 GB 7200 2 MB Yes Xenium ... v1.6 Shrek with thi... 0
209. 2005-05-02 Seagate ST360015A 60 GB 7200 N/A Yes EvoX v1.1 lord humun... None 1
210. 2005-05-04 Seagate ST3120026A 120 GB 7200 8 MB Yes ConfigM... Unk. Smurf Locked e... 0
211. 2005-05-05 Seagate ST330620A 30 GB 7200 2 MB Yes Xenium ... v1.6 Shrek this dri... 2
212. 2005-05-07 Seagate ST3160021A 160 GB 7200 2 MB Yes HD Adva... Unk. Nuno Cruz Works fi... 0
213. 2005-05-10 Seagate ST3160023A 160 GB 7200 8 MB Yes xboxhdm... v1.6 Antonik Transfer... 0
214. 2005-05-13 Seagate ST310211A 20 GB N/A N/A Yes xenium Unk. DjSpunout None 0
215. 2005-05-16 Seagate ST3120026A 120 GB 7200 8 MB Yes ConfigM... Unk. Fuzzo All I di... 5
216. 2005-05-17 Seagate ST3200822A-RK 200 GB 7200 8 MB Yes XBOXHDM... Unk. prt49ers Worked l... 0
217. 2005-05-20 Seagate ST360021A 60 GB 7200 2 MB Yes evox v1.4 pativ doens't ... 0
218. 2005-05-20 Seagate ST3200822A 200 GB N/A N/A Yes xboxhdm... Unk. zcrum I was on... 0
219. 2005-05-25 Seagate ST3160023A 160 GB 7200 8 MB Yes N/A v1.0 sutiban Locked f... 0
220. 2005-05-31 Seagate ST310211A 10 GB 5400 N/A Yes program... v1.0 thesadofa its the ... 3
221. 2005-06-02 Seagate ST3160023A 160 GB 7200 N/A Yes EVOX v1.6 TUKO WORKS GR... 0
222. 2005-06-02 Seagate ST3200822A-RK 200 GB 7200 8 MB Yes x3.3294... v1.0 fresh Everythi... 0
223. 2005-06-03 Seagate ST3300831A-RK 300 GB 7200 8 MB Yes X3 Conf... v1.0 dtho None 1
224. 2005-06-04 Seagate ST3120022A 120 GB 7200 2 MB Yes Evox v1.5 blaster It worke... 0
225. 2005-06-10 Seagate ST3120022A 120 GB N/A N/A Yes atapwd,... Unk. hadeslan error 6 ... 0
226. 2005-06-11 Seagate ST380021A 80 GB 7200 2 MB Yes X3 Conf... v1.0 Krone None 0
227. 2005-06-13 Seagate ST340824A 40 GB N/A N/A Yes unlock Unk. amirbassim... how unlo... 0
228. 2005-06-14 Seagate 9Y7275-557 400 GB 7200 8 MB Yes EvoX v1.0 Sherlock H... None 0
229. 2005-06-15 Seagate ST3160021A 160 GB 7200 8 MB Yes Xenium ... v1.6 Fantom Drive fo... 0
230. 2005-06-17 Seagate ST3160023A 160 GB 7200 8 MB Yes Evo X v1.1 Carma42 Very qui... 0
231. 2005-06-24 Seagate ST3120022A 120 GB N/A 2 MB Yes hdlock ... Unk. Dragon76 None 0
232. 2005-06-27 Seagate ST360015A 60 GB 7200 N/A Yes ConfigM... v1.1 Fangoes Locks wi... 0
233. 2005-06-28 Seagate ST3120022A 120 GB N/A 2 MB Yes X3 Conf... v1.3 funkymunky... Just ins... 0
234. 2005-06-30 Seagate ST3120026A-RK 120 GB 7200 8 MB No X 3 v1.6 buknak ? 0
235. 2005-07-04 Seagate ST315323A 15.3 GB N/A N/A No none Unk. sa, None 0
236. 2005-07-12 Seagate ST320014A 20 GB 7200 8 MB Yes any v1.6b jimbo None 0
237. 2005-07-12 Seagate ST320014A 20 GB 5400 4 MB Yes evox v1.6 sino None 0
238. 2005-07-14 Seagate ST310230A 10 GB 5400 N/A No lockhd v1.1 Arcane None 0
239. 2005-07-15 Seagate ST3120026A 120 GB 7200 8 MB Yes Slayers... v1.0 Scott No probs... 0
240. 2005-07-17 Seagate ST330088831A-RK 300 GB 7200 8 MB Yes XeniumO... v1.6 tachylon what an ... 0
241. 2005-07-18 Seagate ST310014ACE 8 GB N/A N/A Yes YO MAMA... v1.0 OBIWANRALP... None 0
242. 2005-07-23 Seagate ST380011A 80 GB 7200 2 MB Yes ConfigM... v1.0 adamscybot... Absolute... 1
243. 2005-07-23 Seagate ST3120022A 120 GB 7200 2 MB Yes Evo-X v1.0 Andy None 0
244. 2005-07-23 Seagate ST3160023A 160 GB 7200 8 MB Yes Evox Unk. jpg1957 None 0
245. 2005-07-25 Seagate ST340014A 40 GB 7200 8 MB Yes XeniumO... v1.6b sublimal None 0
246. 2005-07-25 Seagate ST3200822A 200 GB 7200 8 MB Yes XeniumO... v1.6b sublimal None 0
247. 2005-07-26 Seagate ST3120023D 120 GB 7200 2 MB Yes ? Unk. Dav None 0
248. 2005-07-29 Seagate ST340810A 40 GB 5400 2 MB Yes ConfigM... v1.0 Jer This was... 0
249. 2005-07-29 Seagate ST3200822A-RK 200 GB 7200 8 MB Yes ConfigM... v1.0 Jer I tried ... 0
250. 2005-08-09 Seagate ST3200822A 200 GB 7200 N/A Yes EvoX 33... v1.6 Mastergen Absolute... 3
 Page 5 of 16 Entries returned: 756   << First < Previous 1 2 3 4 5 6 7 8 9 10 Next > Last >> 
 
  • Click on the particular brand, model number, size or status to filter out all drives that has the same data.
  • Sort the columns by clicking on the labels on the top grey bar, a second click descends the list.
  • Use the search bar to make specific searches, i.e. show all Seagate disks that's 120 GB and has 8 MB cache.
 


Submit your hard drive

Read this before you post
 
Brand
Other brand:
Model number
Model name / serie
Drive size GB
RPM
Other RPM:
Buffersize (in MB) MB (0.1/0.2/0.5/1/2/8/16 MB)
Firmware version
Manufacture date YYYY-MM-DD
Lockable
Program(s)
XBOX version
Your name/nick
Your e-mail
Show e-mail publicly
Verification code Code:
Additional comments / Error messages / Problems
* BOLD = Required